createdAt,value
2017-05-24T00:00:26.423Z,0
2017-05-24T00:01:26.418Z,0
2017-05-24T00:02:26.419Z,0
2017-05-24T00:03:26.412Z,0
2017-05-24T00:04:26.410Z,0
2017-05-24T00:05:26.098Z,0
2017-05-24T00:06:26.095Z,0
2017-05-24T00:07:26.402Z,0
2017-05-24T00:08:26.398Z,0
2017-05-24T00:09:26.087Z,0
2017-05-24T00:10:25.482Z,0
2017-05-24T00:11:26.083Z,0
2017-05-24T00:12:26.081Z,0
2017-05-24T00:13:26.381Z,0
2017-05-24T00:14:26.074Z,0
2017-05-24T00:15:26.067Z,0
2017-05-24T00:16:26.069Z,0
2017-05-24T00:17:26.061Z,0
2017-05-24T00:18:26.061Z,0
2017-05-24T00:19:26.055Z,0
2017-05-24T00:20:26.054Z,0
2017-05-24T00:21:26.049Z,0
2017-05-24T00:22:26.046Z,0
2017-05-24T00:23:25.739Z,0
2017-05-24T00:24:26.043Z,0
2017-05-24T00:25:25.729Z,0
2017-05-24T00:26:26.037Z,0
2017-05-24T00:27:26.034Z,0
2017-05-24T00:28:26.334Z,0
2017-05-24T00:29:26.021Z,0
2017-05-24T00:30:26.025Z,0
2017-05-24T00:31:26.329Z,0
2017-05-24T00:32:26.015Z,0
2017-05-24T00:33:26.012Z,0
2017-05-24T00:34:26.015Z,0
2017-05-24T00:35:26.314Z,0
2017-05-24T00:36:26.312Z,0
2017-05-24T00:37:25.996Z,0
2017-05-24T00:38:26.003Z,0
2017-05-24T00:39:26.299Z,0
2017-05-24T00:40:26.296Z,0
2017-05-24T00:41:25.983Z,0
2017-05-24T00:42:26.285Z,0
2017-05-24T00:43:26.288Z,0
2017-05-24T00:44:26.287Z,0
2017-05-24T00:45:26.279Z,0
2017-05-24T00:46:25.967Z,0
2017-05-24T00:47:25.965Z,0
2017-05-24T00:48:26.272Z,0
2017-05-24T00:49:25.968Z,0
2017-05-24T00:50:25.998Z,0
2017-05-24T00:51:26.258Z,0
2017-05-24T00:52:25.953Z,0
2017-05-24T00:53:26.258Z,0
2017-05-24T00:54:26.250Z,0
2017-05-24T00:55:25.942Z,0
2017-05-24T00:56:25.940Z,0
2017-05-24T00:57:25.930Z,0
2017-05-24T00:58:25.932Z,0
2017-05-24T00:59:26.236Z,0
2017-05-24T01:00:26.230Z,0
2017-05-24T01:01:25.922Z,0
2017-05-24T01:02:26.225Z,0
2017-05-24T01:03:25.915Z,0
2017-05-24T01:04:25.608Z,0
2017-05-24T01:05:26.211Z,0
2017-05-24T01:06:25.906Z,0
2017-05-24T01:07:26.207Z,0
2017-05-24T01:08:25.901Z,0
2017-05-24T01:09:26.195Z,0
2017-05-24T01:10:26.199Z,0
2017-05-24T01:11:25.883Z,0
2017-05-24T01:12:25.881Z,0
2017-05-24T01:13:26.183Z,0
2017-05-24T01:14:26.182Z,0
2017-05-24T01:15:26.180Z,0
2017-05-24T01:16:26.178Z,0
2017-05-24T01:17:26.174Z,0
2017-05-24T01:18:25.866Z,0
2017-05-24T01:19:25.862Z,0
2017-05-24T01:20:25.861Z,0
2017-05-24T01:21:26.159Z,0
2017-05-24T01:22:26.159Z,0
2017-05-24T01:23:25.847Z,0
2017-05-24T01:24:25.541Z,0
2017-05-24T01:25:26.146Z,0
2017-05-24T01:26:26.145Z,0
2017-05-24T01:27:25.525Z,0
2017-05-24T01:28:25.530Z,0
2017-05-24T01:29:25.521Z,0
2017-05-24T01:30:25.825Z,0
2017-05-24T01:31:25.828Z,0
2017-05-24T01:32:25.815Z,0
2017-05-24T01:33:25.812Z,0
2017-05-24T01:34:26.115Z,0
2017-05-24T01:35:26.115Z,0
2017-05-24T01:36:26.115Z,0
2017-05-24T01:37:26.106Z,0
2017-05-24T01:38:26.113Z,0
2017-05-24T01:39:26.102Z,0
2017-05-24T01:40:25.486Z,0
2017-05-24T01:41:26.093Z,0
2017-05-24T01:42:26.091Z,0
2017-05-24T01:43:26.085Z,0
2017-05-24T01:44:26.098Z,0
2017-05-24T01:45:26.077Z,0
2017-05-24T01:46:26.076Z,0
2017-05-24T01:47:26.080Z,0
2017-05-24T01:48:26.079Z,0
2017-05-24T01:49:25.763Z,0
2017-05-24T01:50:26.062Z,0
2017-05-24T01:51:26.060Z,0
2017-05-24T01:52:26.057Z,0
2017-05-24T01:53:26.056Z,0
2017-05-24T01:54:26.061Z,0
2017-05-24T01:55:25.742Z,0
2017-05-24T01:56:26.045Z,0
2017-05-24T01:57:25.430Z,0
2017-05-24T01:58:25.736Z,0
2017-05-24T01:59:26.042Z,0
2017-05-24T02:00:26.029Z,0
2017-05-24T02:01:26.026Z,0
2017-05-24T02:02:26.027Z,0
2017-05-24T02:03:26.023Z,0
2017-05-24T02:04:26.022Z,0
2017-05-24T02:05:26.015Z,0
2017-05-24T02:06:26.016Z,0
2017-05-24T02:07:25.395Z,0
2017-05-24T02:08:25.398Z,0
2017-05-24T02:09:25.401Z,0
2017-05-24T02:10:25.693Z,0
2017-05-24T02:11:25.690Z,0
2017-05-24T02:12:25.381Z,0
2017-05-24T02:13:25.374Z,0
2017-05-24T02:14:25.987Z,0
2017-05-24T02:15:25.984Z,0
2017-05-24T02:16:25.675Z,0
2017-05-24T02:17:25.984Z,0
2017-05-24T02:18:25.665Z,0
2017-05-24T02:19:25.971Z,0
2017-05-24T02:20:25.349Z,0
2017-05-24T02:21:25.968Z,0
2017-05-24T02:22:25.958Z,0
2017-05-24T02:23:25.657Z,0
2017-05-24T02:24:25.647Z,0
2017-05-24T02:25:25.953Z,0
2017-05-24T02:26:25.953Z,0
2017-05-24T02:27:25.942Z,0
2017-05-24T02:28:25.643Z,0
2017-05-24T02:29:25.635Z,0
2017-05-24T02:30:25.935Z,0
2017-05-24T02:31:25.934Z,0
2017-05-24T02:32:25.927Z,0
2017-05-24T02:33:25.308Z,0
2017-05-24T02:34:25.308Z,0
2017-05-24T02:35:25.611Z,0
2017-05-24T02:36:25.919Z,0
2017-05-24T02:37:25.600Z,0
2017-05-24T02:38:25.602Z,0
2017-05-24T02:39:25.599Z,0
2017-05-24T02:40:25.591Z,0
2017-05-24T02:41:25.893Z,0
2017-05-24T02:42:25.894Z,0
2017-05-24T02:43:25.591Z,0
2017-05-24T02:44:25.888Z,0
2017-05-24T02:45:25.271Z,0
2017-05-24T02:46:25.880Z,0
2017-05-24T02:47:25.570Z,0
2017-05-24T02:48:25.563Z,0
2017-05-24T02:49:25.568Z,0
2017-05-24T02:50:25.252Z,0
2017-05-24T02:51:25.556Z,0
2017-05-24T02:52:25.558Z,0
2017-05-24T02:53:25.550Z,0
2017-05-24T02:54:25.853Z,0
2017-05-24T02:55:25.541Z,0
2017-05-24T02:56:25.845Z,0
2017-05-24T02:57:25.535Z,0
2017-05-24T02:58:25.532Z,0
2017-05-24T02:59:25.833Z,0
2017-05-24T03:00:25.831Z,0
2017-05-24T03:01:25.523Z,0
2017-05-24T03:02:25.523Z,0
2017-05-24T03:03:25.824Z,0
2017-05-24T03:04:25.511Z,0
2017-05-24T03:05:25.570Z,0
2017-05-24T03:06:25.810Z,0
2017-05-24T03:07:25.807Z,0
2017-05-24T03:08:25.819Z,0
2017-05-24T03:09:25.801Z,0
2017-05-24T03:10:25.496Z,0
2017-05-24T03:11:25.795Z,0
2017-05-24T03:12:25.487Z,0
2017-05-24T03:13:25.798Z,0
2017-05-24T03:14:25.785Z,0
2017-05-24T03:15:25.783Z,0
2017-05-24T03:16:25.776Z,0
2017-05-24T03:17:25.775Z,0
2017-05-24T03:18:25.770Z,4
2017-05-24T03:19:25.473Z,4
2017-05-24T03:20:25.458Z,4
2017-05-24T03:21:24.908Z,4
2017-05-24T03:22:25.147Z,0
2017-05-24T03:23:25.760Z,4
2017-05-24T03:24:25.751Z,4
2017-05-24T03:25:25.442Z,8
2017-05-24T03:26:25.746Z,4
2017-05-24T03:27:25.439Z,4
2017-05-24T03:28:25.739Z,8
2017-05-24T03:29:25.735Z,8
2017-05-24T03:30:25.728Z,12
2017-05-24T03:31:25.729Z,8
2017-05-24T03:32:25.726Z,12
2017-05-24T03:33:25.725Z,12
2017-05-24T03:34:25.726Z,16
2017-05-24T03:35:25.714Z,12
2017-05-24T03:36:25.404Z,16
2017-05-24T03:37:25.711Z,12
2017-05-24T03:38:25.402Z,12
2017-05-24T03:39:25.706Z,16
2017-05-24T03:40:25.389Z,16
2017-05-24T03:41:25.696Z,16
2017-05-24T03:42:25.690Z,16
2017-05-24T03:43:25.379Z,16
2017-05-24T03:44:25.694Z,20
2017-05-24T03:45:25.691Z,20
2017-05-24T03:46:25.678Z,20
2017-05-24T03:47:25.390Z,24
2017-05-24T03:48:25.370Z,24
2017-05-24T03:49:25.363Z,32
2017-05-24T03:50:25.664Z,36
2017-05-24T03:51:25.662Z,36
2017-05-24T03:52:25.661Z,40
2017-05-24T03:53:25.668Z,40
2017-05-24T03:54:25.348Z,44
2017-05-24T03:55:25.047Z,48
2017-05-24T03:56:25.648Z,52
2017-05-24T03:57:25.335Z,56
2017-05-24T03:58:25.337Z,60
2017-05-24T03:59:25.636Z,68
2017-05-24T04:00:25.325Z,76
2017-05-24T04:01:25.017Z,92
2017-05-24T04:02:25.627Z,96
2017-05-24T04:03:25.624Z,104
2017-05-24T04:04:25.628Z,120
2017-05-24T04:05:25.623Z,132
2017-05-24T04:06:25.308Z,152
2017-05-24T04:07:25.607Z,164
2017-05-24T04:08:25.602Z,180
2017-05-24T04:09:25.603Z,188
2017-05-24T04:10:25.607Z,196
2017-05-24T04:11:25.286Z,204
2017-05-24T04:12:24.977Z,216
2017-05-24T04:13:25.587Z,232
2017-05-24T04:14:25.589Z,248
2017-05-24T04:15:25.646Z,264
2017-05-24T04:16:25.271Z,276
2017-05-24T04:17:25.580Z,276
2017-05-24T04:18:25.576Z,268
2017-05-24T04:19:25.268Z,260
2017-05-24T04:20:25.561Z,256
2017-05-24T04:21:25.563Z,252
2017-05-24T04:22:25.558Z,248
2017-05-24T04:23:25.555Z,248
2017-05-24T04:24:25.298Z,260
2017-05-24T04:25:25.551Z,264
2017-05-24T04:26:25.547Z,268
2017-05-24T04:27:25.236Z,268
2017-05-24T04:28:25.539Z,284
2017-05-24T04:29:25.536Z,300
2017-05-24T04:30:24.917Z,300
2017-05-24T04:31:25.226Z,296
2017-05-24T04:32:25.217Z,284
2017-05-24T04:33:25.214Z,268
2017-05-24T04:34:25.209Z,256
2017-05-24T04:35:25.521Z,248
2017-05-24T04:36:25.513Z,248
2017-05-24T04:37:25.508Z,256
2017-05-24T04:38:25.200Z,268
2017-05-24T04:39:25.197Z,280
2017-05-24T04:40:25.498Z,308
2017-05-24T04:41:25.501Z,352
2017-05-24T04:42:25.181Z,388
2017-05-24T04:43:25.491Z,404
2017-05-24T04:44:25.486Z,416
2017-05-24T04:45:25.170Z,416
2017-05-24T04:46:25.170Z,424
2017-05-24T04:47:25.170Z,416
2017-05-24T04:48:25.164Z,436
2017-05-24T04:49:25.464Z,452
2017-05-24T04:50:24.852Z,448
2017-05-24T04:51:25.456Z,420
2017-05-24T04:52:25.458Z,412
2017-05-24T04:53:25.152Z,412
2017-05-24T04:54:25.148Z,400
2017-05-24T04:55:24.833Z,392
2017-05-24T04:56:25.135Z,388
2017-05-24T04:57:25.142Z,392
2017-05-24T04:58:25.437Z,408
2017-05-24T04:59:25.438Z,436
2017-05-24T05:00:25.429Z,472
2017-05-24T05:01:25.170Z,488
2017-05-24T05:02:25.115Z,496
2017-05-24T05:03:25.118Z,488
2017-05-24T05:04:25.116Z,468
2017-05-24T05:05:25.414Z,472
2017-05-24T05:06:25.410Z,516
2017-05-24T05:07:25.408Z,588
2017-05-24T05:08:25.101Z,716
2017-05-24T05:09:25.403Z,844
2017-05-24T05:10:24.477Z,916
2017-05-24T05:11:25.086Z,956
2017-05-24T05:12:25.082Z,980
2017-05-24T05:13:25.389Z,968
2017-05-24T05:14:25.393Z,924
2017-05-24T05:15:25.075Z,876
2017-05-24T05:16:25.376Z,812
2017-05-24T05:17:25.375Z,772
2017-05-24T05:18:24.762Z,772
2017-05-24T05:19:25.377Z,812
2017-05-24T05:20:25.058Z,848
2017-05-24T05:21:25.052Z,888
2017-05-24T05:22:25.352Z,944
2017-05-24T05:23:25.355Z,976
2017-05-24T05:24:24.739Z,1020
2017-05-24T05:25:24.426Z,1088
2017-05-24T05:26:25.344Z,1180
2017-05-24T05:27:25.029Z,1304
2017-05-24T05:28:25.032Z,1400
2017-05-24T05:29:25.338Z,1448
2017-05-24T05:30:25.029Z,1528
2017-05-24T05:31:25.022Z,1520
2017-05-24T05:32:25.323Z,1488
2017-05-24T05:33:24.718Z,1516
2017-05-24T05:34:25.318Z,1512
2017-05-24T05:35:25.316Z,1424
2017-05-24T05:36:25.010Z,1372
2017-05-24T05:37:25.003Z,1352
2017-05-24T05:38:25.316Z,1312
2017-05-24T05:39:25.303Z,1336
2017-05-24T05:40:25.299Z,1364
2017-05-24T05:41:24.989Z,1652
2017-05-24T05:42:25.346Z,2036
2017-05-24T05:43:25.291Z,2372
2017-05-24T05:44:24.982Z,2364
2017-05-24T05:45:24.668Z,2296
2017-05-24T05:46:25.285Z,2304
2017-05-24T05:47:25.274Z,2188
2017-05-24T05:48:24.968Z,2080
2017-05-24T05:49:25.275Z,2080
2017-05-24T05:50:24.965Z,2104
2017-05-24T05:51:24.961Z,2228
2017-05-24T05:52:25.256Z,2524
2017-05-24T05:53:25.258Z,2828
2017-05-24T05:54:25.255Z,2964
2017-05-24T05:55:25.309Z,2980
2017-05-24T05:56:25.246Z,2964
2017-05-24T05:57:25.245Z,2760
2017-05-24T05:58:25.245Z,2356
2017-05-24T05:59:24.935Z,2160
2017-05-24T06:00:24.622Z,2052
2017-05-24T06:01:24.932Z,2044
2017-05-24T06:02:25.284Z,2020
2017-05-24T06:03:25.235Z,2108
2017-05-24T06:04:24.915Z,2120
2017-05-24T06:05:24.918Z,2088
2017-05-24T06:06:24.912Z,2144
2017-05-24T06:07:24.610Z,2100
2017-05-24T06:08:24.905Z,2008
2017-05-24T06:09:24.908Z,1912
2017-05-24T06:10:25.204Z,2040
2017-05-24T06:11:24.898Z,2104
2017-05-24T06:12:24.891Z,2104
2017-05-24T06:13:25.198Z,2056
2017-05-24T06:14:24.891Z,1964
2017-05-24T06:15:24.886Z,1864
2017-05-24T06:16:24.888Z,1836
2017-05-24T06:17:24.879Z,1824
2017-05-24T06:18:25.184Z,1924
2017-05-24T06:19:24.877Z,2080
2017-05-24T06:20:24.872Z,2176
2017-05-24T06:21:24.563Z,2288
2017-05-24T06:22:24.559Z,2324
2017-05-24T06:23:24.565Z,2244
2017-05-24T06:24:24.861Z,2008
2017-05-24T06:25:24.550Z,1880
2017-05-24T06:26:24.850Z,1968
2017-05-24T06:27:24.855Z,2052
2017-05-24T06:28:24.851Z,2048
2017-05-24T06:29:24.538Z,1960
2017-05-24T06:30:24.839Z,1884
2017-05-24T06:31:24.534Z,1836
2017-05-24T06:32:25.145Z,1976
2017-05-24T06:33:24.525Z,2104
2017-05-24T06:34:24.833Z,2172
2017-05-24T06:35:25.135Z,2308
2017-05-24T06:36:24.210Z,2520
2017-05-24T06:37:24.516Z,2500
2017-05-24T06:38:24.515Z,2352
2017-05-24T06:39:25.119Z,2284
2017-05-24T06:40:25.119Z,2172
2017-05-24T06:41:25.115Z,1784
2017-05-24T06:42:24.805Z,1788
2017-05-24T06:43:25.108Z,1868
2017-05-24T06:44:24.798Z,1948
2017-05-24T06:45:24.996Z,2052
2017-05-24T06:46:25.125Z,2180
2017-05-24T06:47:25.096Z,2176
2017-05-24T06:48:25.098Z,2160
2017-05-24T06:49:25.094Z,2136
2017-05-24T06:50:25.091Z,2200
2017-05-24T06:51:24.781Z,2336
2017-05-24T06:52:24.775Z,2692
2017-05-24T06:53:24.774Z,2756
2017-05-24T06:54:25.076Z,2788
2017-05-24T06:55:24.460Z,2628
2017-05-24T06:56:24.458Z,2416
2017-05-24T06:57:24.455Z,2432
2017-05-24T06:58:24.768Z,2240
2017-05-24T06:59:25.057Z,2284
2017-05-24T07:00:25.063Z,2340
2017-05-24T07:01:24.751Z,2332
2017-05-24T07:02:24.442Z,2404
2017-05-24T07:03:25.042Z,2468
2017-05-24T07:04:24.741Z,2760
2017-05-24T07:05:25.045Z,3132
2017-05-24T07:06:24.733Z,3456
2017-05-24T07:07:25.037Z,3644
2017-05-24T07:08:24.728Z,3884
2017-05-24T07:09:25.030Z,4236
2017-05-24T07:10:25.028Z,4584
2017-05-24T07:11:25.025Z,4652
2017-05-24T07:12:24.716Z,4564
2017-05-24T07:13:24.775Z,4648
2017-05-24T07:14:24.720Z,4948
2017-05-24T07:15:25.018Z,5304
2017-05-24T07:16:25.018Z,5828
2017-05-24T07:17:24.704Z,6428
2017-05-24T07:18:24.707Z,6764
2017-05-24T07:19:24.397Z,7044
2017-05-24T07:20:25.001Z,7916
2017-05-24T07:21:24.387Z,11268
2017-05-24T07:22:24.694Z,9812
2017-05-24T07:23:24.386Z,10764
2017-05-24T07:24:24.688Z,9304
2017-05-24T07:25:24.680Z,7920
2017-05-24T07:26:24.377Z,6748
2017-05-24T07:27:24.984Z,8196
2017-05-24T07:28:24.380Z,7160
2017-05-24T07:29:24.373Z,7184
2017-05-24T07:30:24.979Z,7748
2017-05-24T07:31:24.672Z,9084
2017-05-24T07:32:24.364Z,7956
2017-05-24T07:33:24.670Z,8872
2017-05-24T07:34:24.668Z,9092
2017-05-24T07:35:24.661Z,8616
2017-05-24T07:36:24.349Z,6692
2017-05-24T07:37:24.966Z,7428
2017-05-24T07:38:24.659Z,7904
2017-05-24T07:39:24.659Z,6556
2017-05-24T07:40:24.962Z,6548
2017-05-24T07:41:24.647Z,7168
2017-05-24T07:42:24.951Z,6708
2017-05-24T07:43:24.953Z,6560
2017-05-24T07:44:24.647Z,6316
2017-05-24T07:45:24.643Z,6232
2017-05-24T07:46:24.946Z,6304
2017-05-24T07:47:24.949Z,7256
2017-05-24T07:48:24.943Z,6728
2017-05-24T07:49:24.938Z,7144
2017-05-24T07:50:24.941Z,7924
2017-05-24T07:51:24.934Z,9084
2017-05-24T07:52:24.327Z,9080
2017-05-24T07:53:24.328Z,9196
2017-05-24T07:54:24.630Z,8972
2017-05-24T07:55:24.622Z,8924
2017-05-24T07:56:24.929Z,8916
2017-05-24T07:57:24.929Z,8972
2017-05-24T07:58:24.925Z,8732
2017-05-24T07:59:24.930Z,7948
2017-05-24T08:00:24.920Z,7352
2017-05-24T08:01:24.920Z,6888
2017-05-24T08:02:24.920Z,6956
2017-05-24T08:03:24.610Z,7756
2017-05-24T08:04:24.611Z,6536
2017-05-24T08:05:24.608Z,6164
2017-05-24T08:06:24.666Z,6396
2017-05-24T08:07:24.603Z,6516
2017-05-24T08:08:24.909Z,6748
2017-05-24T08:09:24.613Z,6688
2017-05-24T08:10:24.602Z,6304
2017-05-24T08:11:24.599Z,6100
2017-05-24T08:12:24.908Z,6556
2017-05-24T08:13:24.593Z,6136
2017-05-24T08:14:24.600Z,5832
2017-05-24T08:15:24.591Z,5512
2017-05-24T08:16:24.592Z,5344
2017-05-24T08:17:24.594Z,5184
2017-05-24T08:18:24.588Z,5076
2017-05-24T08:19:24.591Z,4860
2017-05-24T08:20:24.891Z,4724
2017-05-24T08:21:24.889Z,4616
2017-05-24T08:22:24.887Z,4624
2017-05-24T08:23:24.584Z,4844
2017-05-24T08:24:24.274Z,4944
2017-05-24T08:25:24.575Z,5028
2017-05-24T08:26:24.878Z,4848
2017-05-24T08:27:24.882Z,5304
2017-05-24T08:28:24.577Z,5464
2017-05-24T08:29:24.876Z,5440
2017-05-24T08:30:24.568Z,5404
2017-05-24T08:31:24.874Z,5416
2017-05-24T08:32:24.292Z,5616
2017-05-24T08:33:24.269Z,5860
2017-05-24T08:34:24.872Z,5928
2017-05-24T08:35:24.254Z,5956
2017-05-24T08:36:24.256Z,5860
2017-05-24T08:37:24.860Z,5676
2017-05-24T08:38:24.916Z,5680
2017-05-24T08:39:24.862Z,5784
2017-05-24T08:40:24.865Z,5888
2017-05-24T08:41:24.246Z,6072
2017-05-24T08:42:24.558Z,6080
2017-05-24T08:43:24.853Z,6092
2017-05-24T08:44:24.857Z,5968
2017-05-24T08:45:24.846Z,5856
2017-05-24T08:46:24.236Z,5832
2017-05-24T08:47:24.543Z,5868
2017-05-24T08:48:24.853Z,5764
2017-05-24T08:49:24.844Z,5680
2017-05-24T08:50:24.847Z,5460
2017-05-24T08:51:24.842Z,5416
2017-05-24T08:52:24.854Z,5564
2017-05-24T08:53:24.840Z,5620
2017-05-24T08:54:24.837Z,5384
2017-05-24T08:55:24.835Z,5068
2017-05-24T08:56:24.222Z,4924
2017-05-24T08:57:24.527Z,4896
2017-05-24T08:58:24.270Z,4768
2017-05-24T08:59:24.223Z,4756
2017-05-24T09:00:24.594Z,4600
2017-05-24T09:01:24.828Z,4288
2017-05-24T09:02:24.825Z,3896
2017-05-24T09:03:24.819Z,3712
2017-05-24T09:04:24.822Z,3700
2017-05-24T09:05:24.512Z,3552
2017-05-24T09:06:24.516Z,3012
2017-05-24T09:07:24.570Z,2556
2017-05-24T09:08:24.813Z,2360
2017-05-24T09:09:24.812Z,2388
2017-05-24T09:10:24.817Z,2136
2017-05-24T09:11:24.504Z,2180
2017-05-24T09:12:24.809Z,2124
2017-05-24T09:13:24.852Z,2072
2017-05-24T09:14:24.810Z,2016
2017-05-24T09:15:24.798Z,1992
2017-05-24T09:16:24.495Z,1984
2017-05-24T09:17:24.796Z,1980
2017-05-24T09:18:24.793Z,2004
2017-05-24T09:19:24.487Z,2016
2017-05-24T09:20:24.792Z,1980
2017-05-24T09:21:24.491Z,1944
2017-05-24T09:22:24.790Z,1940
2017-05-24T09:23:24.793Z,1944
2017-05-24T09:24:24.789Z,1932
2017-05-24T09:25:24.477Z,1896
2017-05-24T09:26:24.472Z,1884
2017-05-24T09:27:24.522Z,1892
2017-05-24T09:28:24.822Z,1908
2017-05-24T09:29:24.784Z,1940
2017-05-24T09:30:24.767Z,1952
2017-05-24T09:31:24.773Z,1904
2017-05-24T09:32:24.458Z,1944
2017-05-24T09:33:24.762Z,2020
2017-05-24T09:34:24.762Z,1976
2017-05-24T09:35:24.757Z,1964
2017-05-24T09:36:24.454Z,1952
2017-05-24T09:37:24.751Z,1996
2017-05-24T09:38:24.193Z,1908
2017-05-24T09:39:24.142Z,1940
2017-05-24T09:40:24.745Z,1912
2017-05-24T09:41:24.742Z,1896
2017-05-24T09:42:24.741Z,1952
2017-05-24T09:43:24.740Z,2004
2017-05-24T09:44:24.736Z,2060
2017-05-24T09:45:24.735Z,2072
2017-05-24T09:46:24.732Z,2044
2017-05-24T09:47:24.428Z,1944
2017-05-24T09:48:24.424Z,1948
2017-05-24T09:49:24.729Z,1968
2017-05-24T09:50:24.721Z,2020
2017-05-24T09:51:24.728Z,2088
2017-05-24T09:52:24.717Z,2128
2017-05-24T09:53:24.713Z,2072
2017-05-24T09:54:24.718Z,2004
2017-05-24T09:55:24.710Z,1872
2017-05-24T09:56:24.708Z,1868
2017-05-24T09:57:24.707Z,1716
2017-05-24T09:58:24.702Z,1804
2017-05-24T09:59:24.707Z,1960
2017-05-24T10:00:24.698Z,2100
2017-05-24T10:01:24.390Z,2124
2017-05-24T10:02:24.694Z,2096
2017-05-24T10:03:24.691Z,2068
2017-05-24T10:04:24.741Z,2096
2017-05-24T10:05:24.690Z,2104
2017-05-24T10:06:24.377Z,2148
2017-05-24T10:07:24.069Z,2128
2017-05-24T10:08:24.376Z,2156
2017-05-24T10:09:24.065Z,2168
2017-05-24T10:10:24.672Z,2236
2017-05-24T10:11:24.670Z,2280
2017-05-24T10:12:24.668Z,2344
2017-05-24T10:13:24.666Z,2460
2017-05-24T10:14:24.714Z,2560
2017-05-24T10:15:24.662Z,2640
2017-05-24T10:16:24.051Z,2728
2017-05-24T10:17:24.663Z,2824
2017-05-24T10:18:24.664Z,2884
2017-05-24T10:19:24.363Z,2856
2017-05-24T10:20:24.650Z,2804
2017-05-24T10:21:24.653Z,2712
2017-05-24T10:22:24.340Z,2804
2017-05-24T10:23:24.645Z,2980
2017-05-24T10:24:24.387Z,3124
2017-05-24T10:25:24.334Z,2920
2017-05-24T10:26:24.640Z,2612
2017-05-24T10:27:24.632Z,2500
2017-05-24T10:28:24.640Z,3100
2017-05-24T10:29:24.634Z,3256
2017-05-24T10:30:24.018Z,3100
2017-05-24T10:31:24.009Z,2692
2017-05-24T10:32:24.632Z,2584
2017-05-24T10:33:24.315Z,2476
2017-05-24T10:34:24.377Z,2368
2017-05-24T10:35:24.311Z,2452
2017-05-24T10:36:24.616Z,2324
2017-05-24T10:37:24.611Z,2212
2017-05-24T10:38:24.309Z,2176
2017-05-24T10:39:24.361Z,2204
2017-05-24T10:40:24.611Z,2288
2017-05-24T10:41:24.602Z,2436
2017-05-24T10:42:24.599Z,2628
2017-05-24T10:43:24.599Z,2900
2017-05-24T10:44:24.596Z,3276
2017-05-24T10:45:24.595Z,3632
2017-05-24T10:46:24.590Z,4060
2017-05-24T10:47:24.600Z,4356
2017-05-24T10:48:24.591Z,4332
2017-05-24T10:49:24.333Z,4104
2017-05-24T10:50:24.583Z,3652
2017-05-24T10:51:24.279Z,3240
2017-05-24T10:52:24.582Z,2812
2017-05-24T10:53:24.577Z,2424
2017-05-24T10:54:24.576Z,2044
2017-05-24T10:55:24.266Z,2048
2017-05-24T10:56:24.574Z,1916
2017-05-24T10:57:24.570Z,1848
2017-05-24T10:58:24.562Z,1824
2017-05-24T10:59:24.262Z,1788
2017-05-24T11:00:24.251Z,1756
2017-05-24T11:01:23.948Z,1736
2017-05-24T11:02:24.557Z,1712
2017-05-24T11:03:24.567Z,1732
2017-05-24T11:04:24.608Z,1752
2017-05-24T11:05:24.242Z,1780
2017-05-24T11:06:24.550Z,1796
2017-05-24T11:07:24.243Z,1824
2017-05-24T11:08:24.247Z,1848
2017-05-24T11:09:24.240Z,1944
2017-05-24T11:10:24.538Z,2108
2017-05-24T11:11:24.532Z,2228
2017-05-24T11:12:24.530Z,2248
2017-05-24T11:13:24.538Z,2220
2017-05-24T11:14:24.585Z,2060
2017-05-24T11:15:24.221Z,1764
2017-05-24T11:16:24.523Z,1892
2017-05-24T11:17:24.214Z,1892
2017-05-24T11:18:24.220Z,1780
2017-05-24T11:19:24.206Z,2136
2017-05-24T11:20:24.209Z,2280
2017-05-24T11:21:24.518Z,2244
2017-05-24T11:22:24.510Z,2272
2017-05-24T11:23:24.510Z,2372
2017-05-24T11:24:24.558Z,2428
2017-05-24T11:25:24.197Z,2172
2017-05-24T11:26:24.506Z,1944
2017-05-24T11:27:24.189Z,2268
2017-05-24T11:28:24.499Z,2252
2017-05-24T11:29:24.191Z,2412
2017-05-24T11:30:24.186Z,2632
2017-05-24T11:31:24.493Z,2760
2017-05-24T11:32:24.184Z,2464
2017-05-24T11:33:24.484Z,2204
2017-05-24T11:34:24.185Z,2176
2017-05-24T11:35:24.179Z,2084
2017-05-24T11:36:23.867Z,2072
2017-05-24T11:37:24.479Z,2020
2017-05-24T11:38:24.474Z,2060
2017-05-24T11:39:24.471Z,2120
2017-05-24T11:40:24.467Z,2100
2017-05-24T11:41:24.463Z,2080
2017-05-24T11:42:24.462Z,2136
2017-05-24T11:43:24.154Z,2328
2017-05-24T11:44:24.468Z,2448
2017-05-24T11:45:24.460Z,2544
2017-05-24T11:46:23.604Z,2628
2017-05-24T11:47:24.451Z,2712
2017-05-24T11:48:24.453Z,2760
2017-05-24T11:49:24.449Z,2868
2017-05-24T11:50:23.828Z,2988
2017-05-24T11:51:24.443Z,3048
2017-05-24T11:52:24.437Z,3048
2017-05-24T11:53:23.830Z,3084
2017-05-24T11:54:23.829Z,3124
2017-05-24T11:55:24.132Z,3284
2017-05-24T11:56:24.128Z,3532
2017-05-24T11:57:24.435Z,3828
2017-05-24T11:58:24.436Z,4200
2017-05-24T11:59:23.817Z,4256
2017-05-24T12:00:24.424Z,4144
2017-05-24T12:01:23.815Z,4040
2017-05-24T12:02:24.622Z,3772
2017-05-24T12:03:24.424Z,3640
2017-05-24T12:04:24.416Z,3552
2017-05-24T12:05:24.413Z,3640
2017-05-24T12:06:24.415Z,3684
2017-05-24T12:07:24.108Z,3708
2017-05-24T12:08:23.822Z,3884
2017-05-24T12:09:23.797Z,4024
2017-05-24T12:10:23.790Z,3920
2017-05-24T12:11:24.092Z,3828
2017-05-24T12:12:24.098Z,3844
2017-05-24T12:13:23.787Z,3916
2017-05-24T12:14:24.398Z,3800
2017-05-24T12:15:24.394Z,3688
2017-05-24T12:16:23.776Z,3456
2017-05-24T12:17:24.389Z,3280
2017-05-24T12:18:24.083Z,3184
2017-05-24T12:19:23.774Z,3012
2017-05-24T12:20:23.775Z,2924
2017-05-24T12:21:23.774Z,2876
2017-05-24T12:22:24.072Z,2872
2017-05-24T12:23:24.380Z,2916
2017-05-24T12:24:24.389Z,2836
2017-05-24T12:25:24.372Z,2984
2017-05-24T12:26:24.372Z,3292
2017-05-24T12:27:23.757Z,3524
2017-05-24T12:28:24.367Z,3608
2017-05-24T12:29:23.753Z,3572
2017-05-24T12:30:23.749Z,3496
2017-05-24T12:31:24.358Z,3556
2017-05-24T12:32:23.743Z,3720
2017-05-24T12:33:24.357Z,3820
2017-05-24T12:34:24.363Z,3920
2017-05-24T12:35:24.405Z,4044
2017-05-24T12:36:24.352Z,3944
2017-05-24T12:37:23.738Z,3912
2017-05-24T12:38:24.352Z,3664
2017-05-24T12:39:24.355Z,3432
2017-05-24T12:40:24.346Z,3244
2017-05-24T12:41:23.728Z,2972
2017-05-24T12:42:24.035Z,2712
2017-05-24T12:43:24.339Z,2412
2017-05-24T12:44:24.034Z,2124
2017-05-24T12:45:24.343Z,1888
2017-05-24T12:46:24.024Z,1824
2017-05-24T12:47:24.028Z,1908
2017-05-24T12:48:24.333Z,2244
2017-05-24T12:49:24.332Z,2476
2017-05-24T12:50:23.712Z,2484
2017-05-24T12:51:24.321Z,2272
2017-05-24T12:52:24.317Z,2108
2017-05-24T12:53:24.322Z,2264
2017-05-24T12:54:24.322Z,2424
2017-05-24T12:55:24.012Z,2424
2017-05-24T12:56:24.308Z,2324
2017-05-24T12:57:24.312Z,2204
2017-05-24T12:58:23.999Z,2152
2017-05-24T12:59:23.698Z,2088
2017-05-24T13:00:24.303Z,1996
2017-05-24T13:01:23.688Z,1952
2017-05-24T13:02:23.992Z,2004
2017-05-24T13:03:24.298Z,2024
2017-05-24T13:04:24.298Z,1960
2017-05-24T13:05:23.681Z,2032
2017-05-24T13:06:23.371Z,2084
2017-05-24T13:07:23.370Z,2044
2017-05-24T13:08:23.691Z,1996
2017-05-24T13:09:23.676Z,1992
2017-05-24T13:10:23.670Z,1928
2017-05-24T13:11:23.977Z,1820
2017-05-24T13:12:23.663Z,1808
2017-05-24T13:13:23.972Z,1848
2017-05-24T13:14:23.967Z,1988
2017-05-24T13:15:24.275Z,2076
2017-05-24T13:16:24.266Z,2128
2017-05-24T13:17:24.275Z,2144
2017-05-24T13:18:23.656Z,2040
2017-05-24T13:19:23.653Z,1960
2017-05-24T13:20:23.954Z,1996
2017-05-24T13:21:23.337Z,2168
2017-05-24T13:22:24.258Z,2264
2017-05-24T13:23:23.699Z,2152
2017-05-24T13:24:24.266Z,2028
2017-05-24T13:25:23.943Z,2044
2017-05-24T13:26:24.249Z,2124
2017-05-24T13:27:24.247Z,2232
2017-05-24T13:28:24.255Z,2408
2017-05-24T13:29:24.243Z,2348
2017-05-24T13:30:23.935Z,2204
2017-05-24T13:31:24.238Z,2044
2017-05-24T13:32:23.318Z,1944
2017-05-24T13:33:24.236Z,1900
2017-05-24T13:34:23.927Z,1860
2017-05-24T13:35:23.923Z,1828
2017-05-24T13:36:23.614Z,1780
2017-05-24T13:37:23.922Z,1852
2017-05-24T13:38:23.925Z,1848
2017-05-24T13:39:24.222Z,1976
2017-05-24T13:40:24.221Z,1940
2017-05-24T13:41:24.215Z,1936
2017-05-24T13:42:23.908Z,1940
2017-05-24T13:43:23.917Z,2008
2017-05-24T13:44:23.908Z,2144